sensor_id;sensor_type;location;lat;lon;timestamp;pressure;altitude;pressure_sealevel;temperature;humidity
40117;BME280;25829;50.228;18.936;2023-02-01T00:00:58;97978.41;;;1.23;78.00
40117;BME280;25829;50.228;18.936;2023-02-01T00:03:58;97979.09;;;1.25;77.82
40117;BME280;25829;50.228;18.936;2023-02-01T00:06:59;97973.38;;;1.22;77.56
40117;BME280;25829;50.228;18.936;2023-02-01T00:10:01;97972.72;;;1.20;77.61
40117;BME280;25829;50.228;18.936;2023-02-01T00:13:03;97968.03;;;1.15;77.55
40117;BME280;25829;50.228;18.936;2023-02-01T00:16:16;97950.47;;;1.09;77.79
40117;BME280;25829;50.228;18.936;2023-02-01T00:19:17;97942.03;;;1.07;77.55
40117;BME280;25829;50.228;18.936;2023-02-01T00:22:18;97935.69;;;1.01;77.68
40117;BME280;25829;50.228;18.936;2023-02-01T00:25:18;97929.34;;;0.96;77.31
40117;BME280;25829;50.228;18.936;2023-02-01T00:28:19;97938.28;;;0.93;77.82
40117;BME280;25829;50.228;18.936;2023-02-01T00:31:20;97941.19;;;0.90;77.81
40117;BME280;25829;50.228;18.936;2023-02-01T00:34:20;97942.13;;;0.89;77.83
40117;BME280;25829;50.228;18.936;2023-02-01T00:37:21;97931.94;;;0.96;77.99
40117;BME280;25829;50.228;18.936;2023-02-01T00:40:23;97928.06;;;1.00;78.33
40117;BME280;25829;50.228;18.936;2023-02-01T00:43:24;97921.56;;;1.04;78.12
40117;BME280;25829;50.228;18.936;2023-02-01T00:46:25;97920.28;;;1.08;78.26
40117;BME280;25829;50.228;18.936;2023-02-01T00:49:26;97931.97;;;1.12;78.02
40117;BME280;25829;50.228;18.936;2023-02-01T00:52:27;97937.50;;;1.17;77.84
40117;BME280;25829;50.228;18.936;2023-02-01T00:55:28;97960.53;;;1.20;77.91
40117;BME280;25829;50.228;18.936;2023-02-01T00:58:28;97985.09;;;1.26;78.22
40117;BME280;25829;50.228;18.936;2023-02-01T01:01:29;98034.28;;;1.19;78.06
40117;BME280;25829;50.228;18.936;2023-02-01T01:04:30;98057.97;;;1.16;78.35
40117;BME280;25829;50.228;18.936;2023-02-01T01:07:31;98038.47;;;1.12;78.71
40117;BME280;25829;50.228;18.936;2023-02-01T01:10:32;98040.91;;;1.14;78.11
40117;BME280;25829;50.228;18.936;2023-02-01T01:13:33;98038.78;;;1.09;77.74
40117;BME280;25829;50.228;18.936;2023-02-01T01:16:36;98038.47;;;1.04;78.12
40117;BME280;25829;50.228;18.936;2023-02-01T01:19:37;98046.56;;;1.01;77.93
40117;BME280;25829;50.228;18.936;2023-02-01T01:22:38;98044.09;;;0.91;77.90
40117;BME280;25829;50.228;18.936;2023-02-01T01:25:39;98037.06;;;0.83;77.76
40117;BME280;25829;50.228;18.936;2023-02-01T01:28:40;98048.38;;;0.74;77.59
40117;BME280;25829;50.228;18.936;2023-02-01T01:31:40;98041.38;;;0.67;77.58
40117;BME280;25829;50.228;18.936;2023-02-01T01:34:41;98062.25;;;0.57;78.08
40117;BME280;25829;50.228;18.936;2023-02-01T01:37:45;98033.66;;;0.49;78.52
40117;BME280;25829;50.228;18.936;2023-02-01T01:40:47;98069.63;;;0.44;78.68
40117;BME280;25829;50.228;18.936;2023-02-01T01:43:53;98080.97;;;0.43;78.86
40117;BME280;25829;50.228;18.936;2023-02-01T01:46:56;98069.59;;;0.35;78.95
40117;BME280;25829;50.228;18.936;2023-02-01T01:49:57;98063.06;;;0.31;79.05
40117;BME280;25829;50.228;18.936;2023-02-01T01:53:00;98051.03;;;0.30;78.87
40117;BME280;25829;50.228;18.936;2023-02-01T01:56:04;98053.63;;;0.30;79.42
40117;BME280;25829;50.228;18.936;2023-02-01T01:59:05;98046.69;;;0.31;78.96
40117;BME280;25829;50.228;18.936;2023-02-01T02:02:07;98042.75;;;0.27;78.74
40117;BME280;25829;50.228;18.936;2023-02-01T02:05:09;98050.88;;;0.24;78.75
40117;BME280;25829;50.228;18.936;2023-02-01T02:08:11;98037.81;;;0.16;79.18
40117;BME280;25829;50.228;18.936;2023-02-01T02:11:14;98043.00;;;0.16;79.65
40117;BME280;25829;50.228;18.936;2023-02-01T02:14:18;98030.84;;;0.16;79.78
40117;BME280;25829;50.228;18.936;2023-02-01T02:21:16;98042.41;;;0.22;79.32
40117;BME280;25829;50.228;18.936;2023-02-01T02:25:29;98041.13;;;0.26;79.90
40117;BME280;25829;50.228;18.936;2023-02-01T02:41:23;98051.13;;;0.39;79.27
40117;BME280;25829;50.228;18.936;2023-02-01T02:45:03;98048.22;;;0.42;78.93
40117;BME280;25829;50.228;18.936;2023-02-01T02:48:35;98046.56;;;0.41;78.98
40117;BME280;25829;50.228;18.936;2023-02-01T02:51:59;98051.47;;;0.44;78.90
40117;BME280;25829;50.228;18.936;2023-02-01T02:55:23;98054.56;;;0.47;79.40
40117;BME280;25829;50.228;18.936;2023-02-01T02:58:25;98054.25;;;0.50;78.67
40117;BME280;25829;50.228;18.936;2023-02-01T03:01:45;98048.94;;;0.52;78.47
40117;BME280;25829;50.228;18.936;2023-02-01T03:05:04;98037.19;;;0.48;78.77
40117;BME280;25829;50.228;18.936;2023-02-01T03:08:15;98029.13;;;0.51;78.95
40117;BME280;25829;50.228;18.936;2023-02-01T03:11:18;98041.44;;;0.49;79.00
40117;BME280;25829;50.228;18.936;2023-02-01T03:14:22;98050.34;;;0.46;78.93
40117;BME280;25829;50.228;18.936;2023-02-01T03:17:31;98053.25;;;0.43;78.81
40117;BME280;25829;50.228;18.936;2023-02-01T03:20:37;98047.72;;;0.38;78.79
40117;BME280;25829;50.228;18.936;2023-02-01T03:23:42;98057.13;;;0.39;79.07
40117;BME280;25829;50.228;18.936;2023-02-01T03:26:52;98065.41;;;0.43;79.00
40117;BME280;25829;50.228;18.936;2023-02-01T03:30:11;98062.47;;;0.38;79.18
40117;BME280;25829;50.228;18.936;2023-02-01T03:33:21;98060.63;;;0.30;78.95
40117;BME280;25829;50.228;18.936;2023-02-01T03:36:37;98062.41;;;0.29;79.34
40117;BME280;25829;50.228;18.936;2023-02-01T03:39:51;98076.47;;;0.27;78.92
40117;BME280;25829;50.228;18.936;2023-02-01T03:42:55;98070.13;;;0.21;79.32
40117;BME280;25829;50.228;18.936;2023-02-01T03:46:03;98069.16;;;0.22;79.67
40117;BME280;25829;50.228;18.936;2023-02-01T03:49:18;98070.13;;;0.21;79.12
40117;BME280;25829;50.228;18.936;2023-02-01T03:52:30;98069.91;;;0.15;79.68
40117;BME280;25829;50.228;18.936;2023-02-01T03:55:33;98061.34;;;0.14;79.21
40117;BME280;25829;50.228;18.936;2023-02-01T03:58:36;98064.06;;;0.12;79.69
40117;BME280;25829;50.228;18.936;2023-02-01T04:01:37;98057.25;;;0.11;79.65
40117;BME280;25829;50.228;18.936;2023-02-01T04:04:38;98058.22;;;0.10;79.88
40117;BME280;25829;50.228;18.936;2023-02-01T04:07:39;98054.81;;;0.10;80.12
40117;BME280;25829;50.228;18.936;2023-02-01T04:10:40;98057.94;;;0.14;79.99
40117;BME280;25829;50.228;18.936;2023-02-01T04:13:42;98056.16;;;0.14;79.97
40117;BME280;25829;50.228;18.936;2023-02-01T04:16:44;98061.97;;;0.16;79.52
40117;BME280;25829;50.228;18.936;2023-02-01T04:19:44;98059.25;;;0.18;79.51
40117;BME280;25829;50.228;18.936;2023-02-01T04:22:45;98059.09;;;0.19;79.47
40117;BME280;25829;50.228;18.936;2023-02-01T04:25:46;98056.66;;;0.18;79.42
40117;BME280;25829;50.228;18.936;2023-02-01T04:28:47;98057.47;;;0.18;79.71
40117;BME280;25829;50.228;18.936;2023-02-01T04:31:48;98054.41;;;0.23;79.16
40117;BME280;25829;50.228;18.936;2023-02-01T04:34:49;98050.69;;;0.25;79.68
40117;BME280;25829;50.228;18.936;2023-02-01T04:37:50;98052.03;;;0.29;79.33
40117;BME280;25829;50.228;18.936;2023-02-01T04:40:51;98048.00;;;0.35;79.08
40117;BME280;25829;50.228;18.936;2023-02-01T04:43:51;98052.09;;;0.38;79.25
40117;BME280;25829;50.228;18.936;2023-02-01T04:46:52;98050.16;;;0.40;79.34
40117;BME280;25829;50.228;18.936;2023-02-01T04:49:53;98047.06;;;0.44;79.19
40117;BME280;25829;50.228;18.936;2023-02-01T04:52:54;98039.81;;;0.48;78.94
40117;BME280;25829;50.228;18.936;2023-02-01T04:55:55;98046.16;;;0.53;78.95
40117;BME280;25829;50.228;18.936;2023-02-01T04:58:55;98049.56;;;0.54;78.62
40117;BME280;25829;50.228;18.936;2023-02-01T05:01:56;98046.34;;;0.52;78.35
40117;BME280;25829;50.228;18.936;2023-02-01T05:04:57;98054.25;;;0.50;78.56
40117;BME280;25829;50.228;18.936;2023-02-01T05:07:58;98045.84;;;0.48;78.21
40117;BME280;25829;50.228;18.936;2023-02-01T05:10:58;98057.31;;;0.46;78.60
40117;BME280;25829;50.228;18.936;2023-02-01T05:14:00;98044.66;;;0.43;78.29
40117;BME280;25829;50.228;18.936;2023-02-01T05:17:00;98049.66;;;0.44;78.62
40117;BME280;25829;50.228;18.936;2023-02-01T05:20:01;98037.53;;;0.45;78.59
40117;BME280;25829;50.228;18.936;2023-02-01T05:23:02;98037.38;;;0.46;78.33
40117;BME280;25829;50.228;18.936;2023-02-01T05:26:03;98040.47;;;0.50;78.48
40117;BME280;25829;50.228;18.936;2023-02-01T05:29:04;98050.56;;;0.53;78.45
40117;BME280;25829;50.228;18.936;2023-02-01T05:32:06;98041.16;;;0.52;78.32
40117;BME280;25829;50.228;18.936;2023-02-01T05:35:07;98033.19;;;0.53;78.29
40117;BME280;25829;50.228;18.936;2023-02-01T05:38:08;98035.78;;;0.53;77.86
40117;BME280;25829;50.228;18.936;2023-02-01T05:41:09;98030.09;;;0.50;78.43
40117;BME280;25829;50.228;18.936;2023-02-01T05:44:10;98021.81;;;0.46;77.81
40117;BME280;25829;50.228;18.936;2023-02-01T05:47:11;98022.91;;;0.44;78.04
40117;BME280;25829;50.228;18.936;2023-02-01T05:50:13;98027.47;;;0.42;78.21
40117;BME280;25829;50.228;18.936;2023-02-01T05:53:13;98025.81;;;0.41;77.97
40117;BME280;25829;50.228;18.936;2023-02-01T05:56:14;98021.28;;;0.43;77.97
40117;BME280;25829;50.228;18.936;2023-02-01T05:59:15;98021.81;;;0.46;78.33
40117;BME280;25829;50.228;18.936;2023-02-01T06:02:16;98030.09;;;0.50;78.10
40117;BME280;25829;50.228;18.936;2023-02-01T06:05:17;98029.28;;;0.49;78.37
40117;BME280;25829;50.228;18.936;2023-02-01T06:08:17;98034.81;;;0.54;77.90
40117;BME280;25829;50.228;18.936;2023-02-01T06:11:18;98029.19;;;0.59;78.08
40117;BME280;25829;50.228;18.936;2023-02-01T06:14:19;98033.41;;;0.60;78.10
40117;BME280;25829;50.228;18.936;2023-02-01T06:17:20;98039.25;;;0.62;78.19
40117;BME280;25829;50.228;18.936;2023-02-01T06:20:21;98037.00;;;0.67;78.24
40117;BME280;25829;50.228;18.936;2023-02-01T06:23:22;98043.81;;;0.68;78.20
40117;BME280;25829;50.228;18.936;2023-02-01T06:26:24;98037.34;;;0.72;78.08
40117;BME280;25829;50.228;18.936;2023-02-01T06:29:24;98038.00;;;0.74;77.99
40117;BME280;25829;50.228;18.936;2023-02-01T06:32:26;98046.59;;;0.75;77.56
40117;BME280;25829;50.228;18.936;2023-02-01T06:35:27;98052.59;;;0.75;78.14
40117;BME280;25829;50.228;18.936;2023-02-01T06:38:28;98043.56;;;0.79;78.29
40117;BME280;25829;50.228;18.936;2023-02-01T06:41:29;98038.03;;;0.82;77.87
40117;BME280;25829;50.228;18.936;2023-02-01T06:44:29;98037.72;;;0.86;78.07
40117;BME280;25829;50.228;18.936;2023-02-01T06:47:30;98032.22;;;0.89;77.84
40117;BME280;25829;50.228;18.936;2023-02-01T06:50:32;98036.28;;;0.91;77.19
40117;BME280;25829;50.228;18.936;2023-02-01T06:53:34;98019.59;;;0.94;77.20
40117;BME280;25829;50.228;18.936;2023-02-01T06:56:34;98022.03;;;0.95;77.37
40117;BME280;25829;50.228;18.936;2023-02-01T06:59:35;98020.91;;;0.98;77.45
40117;BME280;25829;50.228;18.936;2023-02-01T07:02:36;98027.56;;;1.00;77.38
40117;BME280;25829;50.228;18.936;2023-02-01T07:05:38;98022.38;;;1.00;76.88
40117;BME280;25829;50.228;18.936;2023-02-01T07:08:39;98027.41;;;1.02;77.12
40117;BME280;25829;50.228;18.936;2023-02-01T07:11:40;98025.47;;;1.04;76.95
40117;BME280;25829;50.228;18.936;2023-02-01T07:14:43;98026.13;;;1.06;76.76
40117;BME280;25829;50.228;18.936;2023-02-01T07:17:44;98012.66;;;1.11;77.06
40117;BME280;25829;50.228;18.936;2023-02-01T07:20:50;98020.78;;;1.16;76.62
40117;BME280;25829;50.228;18.936;2023-02-01T07:23:51;98020.78;;;1.16;76.33
40117;BME280;25829;50.228;18.936;2023-02-01T07:26:52;98022.56;;;1.15;76.13
40117;BME280;25829;50.228;18.936;2023-02-01T07:29:53;98015.28;;;1.19;76.55
40117;BME280;25829;50.228;18.936;2023-02-01T07:32:55;98019.19;;;1.23;76.65
40117;BME280;25829;50.228;18.936;2023-02-01T07:36:02;98032.66;;;1.26;76.57
40117;BME280;25829;50.228;18.936;2023-02-01T07:39:03;98015.59;;;1.24;76.30
40117;BME280;25829;50.228;18.936;2023-02-01T07:42:10;98021.78;;;1.23;76.29
40117;BME280;25829;50.228;18.936;2023-02-01T07:45:11;98021.94;;;1.21;75.91
40117;BME280;25829;50.228;18.936;2023-02-01T07:48:17;98016.44;;;1.24;75.85
40117;BME280;25829;50.228;18.936;2023-02-01T07:51:18;98024.88;;;1.26;76.06
40117;BME280;25829;50.228;18.936;2023-02-01T07:54:19;98026.03;;;1.32;76.09
40117;BME280;25829;50.228;18.936;2023-02-01T07:57:20;98028.16;;;1.37;76.04
40117;BME280;25829;50.228;18.936;2023-02-01T08:00:20;98024.25;;;1.41;76.03
40117;BME280;25829;50.228;18.936;2023-02-01T08:03:40;98025.56;;;1.45;76.27
40117;BME280;25829;50.228;18.936;2023-02-01T08:06:41;98026.22;;;1.47;75.97
40117;BME280;25829;50.228;18.936;2023-02-01T08:09:41;98020.03;;;1.48;75.73
40117;BME280;25829;50.228;18.936;2023-02-01T08:12:42;98021.69;;;1.49;75.80
40117;BME280;25829;50.228;18.936;2023-02-01T08:15:43;98025.09;;;1.49;75.90
40117;BME280;25829;50.228;18.936;2023-02-01T08:18:44;98025.72;;;1.51;75.35
40117;BME280;25829;50.228;18.936;2023-02-01T08:21:44;98018.59;;;1.53;75.77
40117;BME280;25829;50.228;18.936;2023-02-01T08:24:49;98017.47;;;1.56;75.47
40117;BME280;25829;50.228;18.936;2023-02-01T08:27:50;98011.59;;;1.54;75.61
40117;BME280;25829;50.228;18.936;2023-02-01T08:30:51;98008.19;;;1.53;75.36
40117;BME280;25829;50.228;18.936;2023-02-01T08:33:57;98006.41;;;1.54;75.59
40117;BME280;25829;50.228;18.936;2023-02-01T08:36:58;98002.69;;;1.57;75.41
40117;BME280;25829;50.228;18.936;2023-02-01T08:40:00;98016.66;;;1.64;75.17
40117;BME280;25829;50.228;18.936;2023-02-01T08:43:01;98009.34;;;1.67;75.37
40117;BME280;25829;50.228;18.936;2023-02-01T08:46:03;98010.16;;;1.68;75.30
40117;BME280;25829;50.228;18.936;2023-02-01T08:49:04;98014.06;;;1.72;74.78
40117;BME280;25829;50.228;18.936;2023-02-01T08:52:05;98010.66;;;1.71;74.43
40117;BME280;25829;50.228;18.936;2023-02-01T08:55:06;98018.13;;;1.74;74.70
40117;BME280;25829;50.228;18.936;2023-02-01T08:58:07;98020.72;;;1.83;74.96
40117;BME280;25829;50.228;18.936;2023-02-01T09:01:12;98022.03;;;1.87;74.87
40117;BME280;25829;50.228;18.936;2023-02-01T09:04:13;98021.69;;;1.90;74.47
40117;BME280;25829;50.228;18.936;2023-02-01T09:07:14;98020.56;;;1.92;74.18
40117;BME280;25829;50.228;18.936;2023-02-01T09:10:15;98018.75;;;1.93;74.36
40117;BME280;25829;50.228;18.936;2023-02-01T09:13:16;98018.94;;;1.99;74.01
40117;BME280;25829;50.228;18.936;2023-02-01T09:16:17;98015.38;;;2.00;73.93
40117;BME280;25829;50.228;18.936;2023-02-01T09:19:18;98012.78;;;2.00;73.86
40117;BME280;25829;50.228;18.936;2023-02-01T09:22:19;98013.41;;;2.02;73.87
40117;BME280;25829;50.228;18.936;2023-02-01T09:25:20;98018.47;;;2.04;73.50
40117;BME280;25829;50.228;18.936;2023-02-01T09:28:20;98008.84;;;2.05;73.42
40117;BME280;25829;50.228;18.936;2023-02-01T09:31:21;98006.75;;;2.08;73.91
40117;BME280;25829;50.228;18.936;2023-02-01T09:34:22;98012.25;;;2.13;73.73
40117;BME280;25829;50.228;18.936;2023-02-01T09:37:23;97998.41;;;2.21;73.90
40117;BME280;25829;50.228;18.936;2023-02-01T09:40:24;98007.03;;;2.30;73.71
40117;BME280;25829;50.228;18.936;2023-02-01T09:46:45;97995.25;;;2.50;73.30
40117;BME280;25829;50.228;18.936;2023-02-01T09:50:04;97980.13;;;2.54;73.17
40117;BME280;25829;50.228;18.936;2023-02-01T09:53:15;97979.94;;;2.63;73.28
40117;BME280;25829;50.228;18.936;2023-02-01T09:56:23;97982.34;;;2.73;72.91
40117;BME280;25829;50.228;18.936;2023-02-01T09:59:39;97973.81;;;2.87;73.24
40117;BME280;25829;50.228;18.936;2023-02-01T10:02:42;97973.22;;;3.00;72.92
40117;BME280;25829;50.228;18.936;2023-02-01T10:06:13;97970.88;;;3.13;72.65
40117;BME280;25829;50.228;18.936;2023-02-01T10:09:25;97970.03;;;3.21;72.29
40117;BME280;25829;50.228;18.936;2023-02-01T10:22:41;97955.97;;;3.30;71.01
40117;BME280;25829;50.228;18.936;2023-02-01T10:28:56;97954.50;;;3.28;70.81
40117;BME280;25829;50.228;18.936;2023-02-01T10:31:58;97949.75;;;3.31;70.73
40117;BME280;25829;50.228;18.936;2023-02-01T10:35:22;97952.56;;;3.30;70.70
40117;BME280;25829;50.228;18.936;2023-02-01T10:38:29;97957.75;;;3.30;70.44
40117;BME280;25829;50.228;18.936;2023-02-01T10:41:34;97961.06;;;3.23;70.33
40117;BME280;25829;50.228;18.936;2023-02-01T10:44:41;97963.53;;;3.17;70.67
40117;BME280;25829;50.228;18.936;2023-02-01T10:47:51;97953.78;;;3.11;70.45
40117;BME280;25829;50.228;18.936;2023-02-01T10:51:00;97958.06;;;3.04;70.73
40117;BME280;25829;50.228;18.936;2023-02-01T10:57:58;97954.25;;;2.91;71.21
40117;BME280;25829;50.228;18.936;2023-02-01T11:01:04;97959.13;;;2.86;71.53
40117;BME280;25829;50.228;18.936;2023-02-01T11:04:18;97939.81;;;2.81;71.65
40117;BME280;25829;50.228;18.936;2023-02-01T11:07:23;97940.94;;;2.78;72.13
40117;BME280;25829;50.228;18.936;2023-02-01T11:10:41;97940.63;;;2.81;72.17
40117;BME280;25829;50.228;18.936;2023-02-01T11:13:42;97938.16;;;2.80;72.10
40117;BME280;25829;50.228;18.936;2023-02-01T11:16:58;97941.59;;;2.80;72.55
40117;BME280;25829;50.228;18.936;2023-02-01T11:20:08;97936.41;;;2.80;72.59
40117;BME280;25829;50.228;18.936;2023-02-01T11:23:20;97932.81;;;2.81;72.83
40117;BME280;25829;50.228;18.936;2023-02-01T11:26:26;97940.63;;;2.81;73.03
40117;BME280;25829;50.228;18.936;2023-02-01T11:29:40;97929.22;;;2.82;73.11
40117;BME280;25829;50.228;18.936;2023-02-01T11:32:45;97913.91;;;2.79;72.85
40117;BME280;25829;50.228;18.936;2023-02-01T11:35:53;97915.38;;;2.82;73.35
40117;BME280;25829;50.228;18.936;2023-02-01T11:42:17;97908.16;;;2.92;73.08
40117;BME280;25829;50.228;18.936;2023-02-01T11:45:32;97901.59;;;2.96;72.85
40117;BME280;25829;50.228;18.936;2023-02-01T11:48:37;97898.47;;;3.01;73.38
40117;BME280;25829;50.228;18.936;2023-02-01T11:52:10;97896.34;;;3.04;72.75
40117;BME280;25829;50.228;18.936;2023-02-01T12:05:27;97874.97;;;3.09;72.45
40117;BME280;25829;50.228;18.936;2023-02-01T12:08:48;97878.59;;;3.08;72.66
40117;BME280;25829;50.228;18.936;2023-02-01T12:38:53;97868.13;;;3.31;71.77
40117;BME280;25829;50.228;18.936;2023-02-01T12:42:15;97868.38;;;3.21;71.76
40117;BME280;25829;50.228;18.936;2023-02-01T12:45:20;97855.75;;;3.10;72.03
40117;BME280;25829;50.228;18.936;2023-02-01T12:52:00;97848.28;;;3.07;72.50
40117;BME280;25829;50.228;18.936;2023-02-01T13:02:16;97817.13;;;3.13;72.93
40117;BME280;25829;50.228;18.936;2023-02-01T13:05:24;97815.78;;;3.17;72.54
40117;BME280;25829;50.228;18.936;2023-02-01T13:08:43;97812.22;;;3.18;72.58
40117;BME280;25829;50.228;18.936;2023-02-01T13:11:47;97801.94;;;3.17;72.50
40117;BME280;25829;50.228;18.936;2023-02-01T13:15:17;97801.47;;;3.13;72.56
40117;BME280;25829;50.228;18.936;2023-02-01T13:18:35;97803.94;;;3.15;72.79
40117;BME280;25829;50.228;18.936;2023-02-01T13:22:29;97799.16;;;3.18;72.96
40117;BME280;25829;50.228;18.936;2023-02-01T13:25:39;97794.41;;;3.22;72.49
40117;BME280;25829;50.228;18.936;2023-02-01T13:28:58;97788.75;;;3.18;72.45
40117;BME280;25829;50.228;18.936;2023-02-01T13:42:25;97801.22;;;3.08;72.35
40117;BME280;25829;50.228;18.936;2023-02-01T13:45:42;97800.09;;;3.03;72.61
40117;BME280;25829;50.228;18.936;2023-02-01T13:49:01;97815.81;;;2.94;72.66
40117;BME280;25829;50.228;18.936;2023-02-01T13:52:03;97826.47;;;2.85;72.65
40117;BME280;25829;50.228;18.936;2023-02-01T14:08:44;97851.72;;;2.14;74.16
40117;BME280;25829;50.228;18.936;2023-02-01T14:11:51;97844.63;;;2.08;74.65
40117;BME280;25829;50.228;18.936;2023-02-01T14:15:25;97846.56;;;2.06;74.36
40117;BME280;25829;50.228;18.936;2023-02-01T14:21:52;97842.03;;;1.99;74.53
40117;BME280;25829;50.228;18.936;2023-02-01T14:25:02;97836.53;;;1.94;74.59
40117;BME280;25829;50.228;18.936;2023-02-01T14:32:18;97843.38;;;1.79;74.65
40117;BME280;25829;50.228;18.936;2023-02-01T14:35:26;97830.59;;;1.69;75.10
40117;BME280;25829;50.228;18.936;2023-02-01T14:38:56;97833.53;;;1.58;75.16
40117;BME280;25829;50.228;18.936;2023-02-01T14:42:03;97838.09;;;1.48;75.66
40117;BME280;25829;50.228;18.936;2023-02-01T14:51:32;97839.06;;;1.47;76.22
40117;BME280;25829;50.228;18.936;2023-02-01T14:54:37;97832.88;;;1.48;76.56
40117;BME280;25829;50.228;18.936;2023-02-01T14:57:55;97842.63;;;1.54;76.70
40117;BME280;25829;50.228;18.936;2023-02-01T15:04:26;97841.00;;;1.61;76.63
40117;BME280;25829;50.228;18.936;2023-02-01T15:07:28;97845.38;;;1.61;76.97
40117;BME280;25829;50.228;18.936;2023-02-01T15:10:46;97845.38;;;1.61;76.86
40117;BME280;25829;50.228;18.936;2023-02-01T15:13:57;97847.31;;;1.59;77.57
40117;BME280;25829;50.228;18.936;2023-02-01T15:17:20;97858.38;;;1.61;77.29
40117;BME280;25829;50.228;18.936;2023-02-01T15:20:32;97861.78;;;1.61;77.58
40117;BME280;25829;50.228;18.936;2023-02-01T15:23:33;97876.25;;;1.64;77.73
40117;BME280;25829;50.228;18.936;2023-02-01T15:26:37;97871.88;;;1.64;77.79
40117;BME280;25829;50.228;18.936;2023-02-01T15:29:48;97880.94;;;1.68;78.19
40117;BME280;25829;50.228;18.936;2023-02-01T15:32:50;97871.84;;;1.72;77.76
40117;BME280;25829;50.228;18.936;2023-02-01T15:35:53;97875.59;;;1.70;77.88
40117;BME280;25829;50.228;18.936;2023-02-01T15:39:25;97873.63;;;1.72;78.13
40117;BME280;25829;50.228;18.936;2023-02-01T15:42:26;97871.50;;;1.75;77.96
40117;BME280;25829;50.228;18.936;2023-02-01T15:45:32;97875.56;;;1.78;77.88
40117;BME280;25829;50.228;18.936;2023-02-01T15:48:55;97874.13;;;1.84;78.05
40117;BME280;25829;50.228;18.936;2023-02-01T15:52:02;97881.25;;;1.82;77.87
40117;BME280;25829;50.228;18.936;2023-02-01T15:59:15;97886.31;;;1.75;78.28
40117;BME280;25829;50.228;18.936;2023-02-01T16:02:35;97880.13;;;1.76;78.44
40117;BME280;25829;50.228;18.936;2023-02-01T16:05:58;97881.09;;;1.75;78.35
40117;BME280;25829;50.228;18.936;2023-02-01T16:09:21;97880.78;;;1.78;78.64
40117;BME280;25829;50.228;18.936;2023-02-01T16:15:44;97895.53;;;1.86;78.17
40117;BME280;25829;50.228;18.936;2023-02-01T16:18:45;97894.59;;;1.87;78.07
40117;BME280;25829;50.228;18.936;2023-02-01T16:21:46;97896.69;;;1.91;78.26
40117;BME280;25829;50.228;18.936;2023-02-01T16:24:47;97896.84;;;1.98;78.28
40117;BME280;25829;50.228;18.936;2023-02-01T16:28:12;97896.19;;;2.04;78.28
40117;BME280;25829;50.228;18.936;2023-02-01T16:31:17;97896.81;;;2.06;77.81
40117;BME280;25829;50.228;18.936;2023-02-01T16:42:13;97906.91;;;2.01;77.39
40117;BME280;25829;50.228;18.936;2023-02-01T16:45:17;97896.34;;;1.94;77.19
40117;BME280;25829;50.228;18.936;2023-02-01T16:48:25;97904.34;;;1.85;77.62
40117;BME280;25829;50.228;18.936;2023-02-01T16:51:31;97915.06;;;1.82;77.78
40117;BME280;25829;50.228;18.936;2023-02-01T16:54:36;97909.72;;;1.83;77.66
40117;BME280;25829;50.228;18.936;2023-02-01T16:57:36;97918.66;;;1.81;77.57
40117;BME280;25829;50.228;18.936;2023-02-01T17:00:37;97918.81;;;1.79;77.89
40117;BME280;25829;50.228;18.936;2023-02-01T17:03:39;97932.13;;;1.84;77.58
40117;BME280;25829;50.228;18.936;2023-02-01T17:06:43;97932.63;;;1.88;77.79
40117;BME280;25829;50.228;18.936;2023-02-01T17:09:50;97935.72;;;1.91;77.29
40117;BME280;25829;50.228;18.936;2023-02-01T17:12:51;97937.31;;;1.92;77.70
40117;BME280;25829;50.228;18.936;2023-02-01T17:16:04;97933.91;;;1.92;77.59
40117;BME280;25829;50.228;18.936;2023-02-01T17:19:26;97928.06;;;1.90;77.39
40117;BME280;25829;50.228;18.936;2023-02-01T17:22:27;97919.13;;;1.84;77.24
40117;BME280;25829;50.228;18.936;2023-02-01T17:25:32;97924.66;;;1.81;77.11
40117;BME280;25829;50.228;18.936;2023-02-01T17:28:36;97926.28;;;1.82;77.16
40117;BME280;25829;50.228;18.936;2023-02-01T17:31:47;97923.03;;;1.80;77.13
40117;BME280;25829;50.228;18.936;2023-02-01T17:34:51;97924.47;;;1.83;77.43
40117;BME280;25829;50.228;18.936;2023-02-01T17:37:52;97929.34;;;1.86;77.12
40117;BME280;25829;50.228;18.936;2023-02-01T17:40:53;97918.47;;;1.90;77.45
40117;BME280;25829;50.228;18.936;2023-02-01T17:43:59;97924.81;;;1.88;77.02
40117;BME280;25829;50.228;18.936;2023-02-01T17:47:03;97931.81;;;1.79;77.11
40117;BME280;25829;50.228;18.936;2023-02-01T17:50:04;97933.59;;;1.78;77.10
40117;BME280;25829;50.228;18.936;2023-02-01T17:53:05;97920.44;;;1.80;77.78
40117;BME280;25829;50.228;18.936;2023-02-01T17:59:46;97920.59;;;1.78;77.26
40117;BME280;25829;50.228;18.936;2023-02-01T18:02:47;97916.19;;;1.79;77.40
40117;BME280;25829;50.228;18.936;2023-02-01T18:05:49;97921.41;;;1.79;76.81
40117;BME280;25829;50.228;18.936;2023-02-01T18:08:52;97920.59;;;1.78;77.45
40117;BME280;25829;50.228;18.936;2023-02-01T18:11:53;97902.06;;;1.82;77.26
40117;BME280;25829;50.228;18.936;2023-02-01T18:14:55;97902.88;;;1.82;77.28
40117;BME280;25829;50.228;18.936;2023-02-01T18:17:57;97898.16;;;1.86;77.04
40117;BME280;25829;50.228;18.936;2023-02-01T18:20:58;97896.84;;;1.90;77.42
40117;BME280;25829;50.228;18.936;2023-02-01T18:24:00;97891.31;;;1.93;76.72
40117;BME280;25829;50.228;18.936;2023-02-01T18:27:00;97894.72;;;1.93;76.97
40117;BME280;25829;50.228;18.936;2023-02-01T18:30:18;97882.69;;;1.92;76.94
40117;BME280;25829;50.228;18.936;2023-02-01T18:33:19;97890.50;;;1.92;77.13
40117;BME280;25829;50.228;18.936;2023-02-01T18:36:20;97890.34;;;1.94;76.98
40117;BME280;25829;50.228;18.936;2023-02-01T18:39:21;97891.97;;;1.95;76.68
40117;BME280;25829;50.228;18.936;2023-02-01T18:42:22;97888.56;;;1.94;76.26
40117;BME280;25829;50.228;18.936;2023-02-01T18:49:18;97888.75;;;1.76;77.13
40117;BME280;25829;50.228;18.936;2023-02-01T18:52:21;97891.84;;;1.80;76.72
40117;BME280;25829;50.228;18.936;2023-02-01T18:55:26;97871.19;;;1.78;77.10